createdAt,value
2022-10-17T00:00:05.858Z,5.28
2022-10-17T00:02:58.377Z,5.22
2022-10-17T00:05:27.965Z,5.19
2022-10-17T00:07:57.121Z,5.17
2022-10-17T00:10:26.481Z,5.15
2022-10-17T00:12:55.682Z,5.14
2022-10-17T00:15:24.033Z,5.14
2022-10-17T00:17:53.846Z,5.12
2022-10-17T00:20:23.235Z,5.12
2022-10-17T00:22:52.661Z,5.11
2022-10-17T00:25:21.861Z,5.09
2022-10-17T00:27:51.059Z,5.08
2022-10-17T00:30:20.159Z,5.06
2022-10-17T00:32:49.563Z,5.04
2022-10-17T00:35:18.926Z,5.01
2022-10-17T00:37:48.327Z,5.00
2022-10-17T00:40:17.010Z,4.99
2022-10-17T00:42:51.602Z,4.98
2022-10-17T00:45:25.604Z,4.97
2022-10-17T00:48:01.992Z,4.97
2022-10-17T00:50:31.453Z,4.98
2022-10-17T00:53:02.090Z,4.99
2022-10-17T00:55:33.111Z,4.99
2022-10-17T00:58:03.845Z,4.99
2022-10-17T01:00:33.343Z,4.98
2022-10-17T01:03:02.906Z,4.98
2022-10-17T01:05:32.608Z,4.96
2022-10-17T01:08:02.351Z,4.92
2022-10-17T01:10:33.497Z,4.88
2022-10-17T01:13:06.450Z,4.87
2022-10-17T01:15:41.768Z,4.86
2022-10-17T01:18:17.439Z,4.86
2022-10-17T01:20:53.179Z,4.86
2022-10-17T01:23:37.564Z,4.86
2022-10-17T01:26:19.894Z,4.85
2022-10-17T01:28:58.332Z,4.84
2022-10-17T01:31:33.143Z,4.81
2022-10-17T01:34:09.073Z,4.75
2022-10-17T01:36:41.493Z,4.71
2022-10-17T01:39:11.099Z,4.65
2022-10-17T01:41:43.952Z,4.62
2022-10-17T01:44:21.221Z,4.61
2022-10-17T01:46:53.179Z,4.62
2022-10-17T01:49:24.997Z,4.61
2022-10-17T01:51:59.596Z,4.62
2022-10-17T01:54:48.112Z,4.64
2022-10-17T01:57:24.082Z,4.64
2022-10-17T01:59:56.327Z,4.62
2022-10-17T02:02:26.988Z,4.60
2022-10-17T02:04:58.404Z,4.58
2022-10-17T02:07:27.634Z,4.58
2022-10-17T02:09:57.281Z,4.55
2022-10-17T02:12:38.120Z,4.49
2022-10-17T02:15:34.480Z,4.47
2022-10-17T02:18:04.127Z,4.46
2022-10-17T02:20:55.612Z,4.43
2022-10-17T02:23:34.084Z,4.44
2022-10-17T02:26:12.577Z,4.44
2022-10-17T02:29:13.977Z,4.44
2022-10-17T02:32:01.825Z,4.43
2022-10-17T02:34:35.055Z,4.43
2022-10-17T02:37:06.661Z,4.38
2022-10-17T02:39:36.946Z,4.35
2022-10-17T02:42:09.146Z,4.33
2022-10-17T02:44:40.126Z,4.32
2022-10-17T02:47:17.003Z,4.31
2022-10-17T02:49:51.829Z,4.31
2022-10-17T02:52:21.703Z,4.32
2022-10-17T02:55:02.810Z,4.32
2022-10-17T02:57:37.657Z,4.32
2022-10-17T03:00:09.602Z,4.32
2022-10-17T03:02:40.563Z,4.30
2022-10-17T03:05:12.487Z,4.30
2022-10-17T03:07:42.256Z,4.29
2022-10-17T03:10:11.698Z,4.28
2022-10-17T03:12:41.274Z,4.28
2022-10-17T03:15:10.862Z,4.29
2022-10-17T03:17:40.293Z,4.28
2022-10-17T03:20:09.774Z,4.27
2022-10-17T03:22:39.923Z,4.26
2022-10-17T03:25:09.351Z,4.28
2022-10-17T03:27:39.170Z,4.27
2022-10-17T03:30:09.516Z,4.28
2022-10-17T03:32:38.231Z,4.29
2022-10-17T03:35:10.174Z,4.26
2022-10-17T03:37:43.789Z,4.23
2022-10-17T03:40:13.709Z,4.21
2022-10-17T03:42:43.638Z,4.20
2022-10-17T03:45:13.008Z,4.15
2022-10-17T03:47:43.225Z,4.13
2022-10-17T03:50:13.000Z,4.14
2022-10-17T03:52:41.774Z,4.14
2022-10-17T03:55:11.551Z,4.12
2022-10-17T03:57:43.451Z,4.07
2022-10-17T04:00:17.654Z,4.02
2022-10-17T04:02:52.153Z,3.98
2022-10-17T04:05:21.402Z,3.97
2022-10-17T04:07:50.949Z,3.96
2022-10-17T04:10:24.071Z,3.96
2022-10-17T04:12:55.350Z,3.96
2022-10-17T04:15:24.784Z,3.97
2022-10-17T04:17:56.372Z,3.96
2022-10-17T04:20:26.002Z,3.94
2022-10-17T04:22:55.385Z,3.93
2022-10-17T04:25:24.483Z,3.94
2022-10-17T04:27:54.197Z,3.94
2022-10-17T04:30:23.450Z,3.94
2022-10-17T04:32:52.833Z,3.93
2022-10-17T04:35:24.435Z,3.93
2022-10-17T04:37:59.731Z,3.93
2022-10-17T04:40:28.998Z,3.92
2022-10-17T04:42:58.405Z,4.03
2022-10-17T04:45:33.955Z,4.10
2022-10-17T04:48:04.660Z,4.08
2022-10-17T04:50:34.168Z,4.05
2022-10-17T04:53:28.544Z,4.04
2022-10-17T04:55:58.004Z,4.03
2022-10-17T04:58:30.398Z,4.02
2022-10-17T05:00:59.770Z,4.02
2022-10-17T05:03:31.491Z,4.02
2022-10-17T05:06:04.180Z,4.00
2022-10-17T05:08:35.401Z,3.99
2022-10-17T05:11:06.192Z,3.97
2022-10-17T05:13:35.413Z,4.00
2022-10-17T05:16:04.705Z,4.00
2022-10-17T05:18:34.057Z,4.00
2022-10-17T05:21:06.655Z,4.01
2022-10-17T05:23:38.462Z,3.99
2022-10-17T05:26:09.634Z,3.96
2022-10-17T05:28:39.294Z,3.94
2022-10-17T05:31:10.836Z,3.96
2022-10-17T05:33:41.128Z,4.02
2022-10-17T05:36:10.116Z,4.07
2022-10-17T05:38:39.417Z,4.14
2022-10-17T05:41:10.027Z,4.22
2022-10-17T05:43:40.540Z,4.33
2022-10-17T05:46:10.114Z,4.44
2022-10-17T05:48:38.493Z,4.58
2022-10-17T05:51:09.171Z,4.70
2022-10-17T05:53:39.963Z,4.84
2022-10-17T05:56:12.792Z,4.99
2022-10-17T05:58:52.425Z,5.13
2022-10-17T06:01:44.287Z,5.25
2022-10-17T06:04:14.419Z,5.36
2022-10-17T06:06:44.446Z,5.47
2022-10-17T06:09:14.988Z,5.64
2022-10-17T06:11:47.129Z,5.84
2022-10-17T06:14:17.476Z,6.04
2022-10-17T06:16:47.355Z,6.23
2022-10-17T06:19:18.766Z,6.43
2022-10-17T06:21:49.250Z,6.63
2022-10-17T06:24:22.592Z,6.82
2022-10-17T06:26:54.573Z,7.04
2022-10-17T06:29:24.453Z,7.28
2022-10-17T06:31:54.748Z,7.48
2022-10-17T06:34:24.028Z,7.69
2022-10-17T06:36:53.380Z,7.90
2022-10-17T06:39:22.501Z,8.05
2022-10-17T06:42:00.865Z,8.22
2022-10-17T06:44:48.360Z,8.45
2022-10-17T06:47:41.719Z,8.71
2022-10-17T06:50:32.156Z,8.92
2022-10-17T06:53:32.688Z,9.12
2022-10-17T06:56:30.189Z,9.27
2022-10-17T06:59:19.618Z,9.47
2022-10-17T07:02:02.190Z,9.66
2022-10-17T07:04:32.507Z,9.88
2022-10-17T07:07:03.449Z,10.07
2022-10-17T07:09:34.590Z,10.27
2022-10-17T07:12:07.105Z,10.43
2022-10-17T07:14:37.173Z,10.63
2022-10-17T07:17:06.586Z,10.84
2022-10-17T07:19:35.924Z,11.06
2022-10-17T07:22:05.913Z,11.24
2022-10-17T07:24:37.947Z,11.43
2022-10-17T07:27:32.722Z,11.66
2022-10-17T07:30:02.514Z,11.89
2022-10-17T07:32:43.969Z,12.10
2022-10-17T07:35:14.101Z,12.33
2022-10-17T07:37:43.856Z,12.55
2022-10-17T07:40:13.633Z,12.75
2022-10-17T07:42:42.848Z,12.93
2022-10-17T07:45:12.917Z,13.10
2022-10-17T07:47:43.350Z,13.31
2022-10-17T07:50:14.088Z,13.50
2022-10-17T07:52:43.857Z,13.74
2022-10-17T07:55:13.192Z,13.96
2022-10-17T07:57:42.616Z,14.20
2022-10-17T08:00:13.355Z,14.41
2022-10-17T08:02:43.626Z,14.61
2022-10-17T08:05:13.184Z,14.77
2022-10-17T08:07:43.148Z,14.97
2022-10-17T08:10:14.118Z,15.12
2022-10-17T08:12:43.394Z,15.24
2022-10-17T08:15:16.127Z,15.39
2022-10-17T08:17:46.128Z,15.56
2022-10-17T08:20:15.267Z,15.77
2022-10-17T08:22:51.981Z,15.94
2022-10-17T08:25:21.165Z,16.15
2022-10-17T08:27:50.484Z,16.37
2022-10-17T08:30:19.685Z,16.57
2022-10-17T08:32:48.892Z,16.78
2022-10-17T08:35:18.043Z,16.91
2022-10-17T08:37:47.338Z,17.11
2022-10-17T08:40:25.578Z,17.24
2022-10-17T08:42:57.689Z,17.32
2022-10-17T08:45:39.599Z,17.50
2022-10-17T08:48:14.924Z,17.69
2022-10-17T08:50:50.603Z,17.81
2022-10-17T08:53:41.764Z,18.05
2022-10-17T08:56:43.979Z,18.26
2022-10-17T08:59:14.542Z,18.48
2022-10-17T09:01:48.958Z,18.75
2022-10-17T09:04:37.694Z,18.97
2022-10-17T09:07:06.799Z,19.19
2022-10-17T09:09:42.353Z,19.35
2022-10-17T09:12:32.547Z,19.46
2022-10-17T09:15:06.128Z,19.64
2022-10-17T09:17:53.484Z,19.83
2022-10-17T09:20:24.347Z,20.05
2022-10-17T09:23:13.927Z,20.24
2022-10-17T09:25:47.876Z,20.48
2022-10-17T09:28:20.097Z,20.69
2022-10-17T09:30:58.635Z,20.87
2022-10-17T09:33:53.276Z,21.03
2022-10-17T09:36:33.936Z,21.13
2022-10-17T09:39:03.552Z,21.28
2022-10-17T09:41:46.837Z,21.36
2022-10-17T09:44:22.240Z,21.43
2022-10-17T09:47:06.764Z,21.65
2022-10-17T09:49:39.817Z,21.88
2022-10-17T09:52:31.098Z,22.08
2022-10-17T09:55:01.142Z,22.23
2022-10-17T09:57:51.184Z,22.32
2022-10-17T10:00:26.341Z,22.43
2022-10-17T10:03:16.570Z,22.56
2022-10-17T10:06:04.601Z,22.71
2022-10-17T10:08:37.464Z,22.80
2022-10-17T10:11:13.399Z,22.91
2022-10-17T10:13:44.026Z,22.86
2022-10-17T10:16:24.692Z,23.03
2022-10-17T10:18:53.894Z,23.18
2022-10-17T10:21:24.502Z,23.33
2022-10-17T10:24:05.968Z,23.50
2022-10-17T10:26:43.721Z,23.61
2022-10-17T10:29:21.235Z,23.63
2022-10-17T10:31:51.713Z,23.69
2022-10-17T10:34:29.432Z,23.84
2022-10-17T10:37:00.717Z,23.94
2022-10-17T10:39:30.362Z,23.96
2022-10-17T10:42:01.634Z,24.06
2022-10-17T10:44:33.173Z,24.17
2022-10-17T10:47:09.905Z,24.13
2022-10-17T10:49:40.234Z,24.19
2022-10-17T10:52:16.434Z,24.29
2022-10-17T10:54:50.302Z,24.33
2022-10-17T10:57:21.877Z,24.44
2022-10-17T10:59:56.354Z,24.55
2022-10-17T11:02:30.905Z,24.66
2022-10-17T11:05:03.142Z,24.75
2022-10-17T11:07:40.687Z,24.68
2022-10-17T11:10:10.646Z,24.71
2022-10-17T11:12:46.964Z,24.85
2022-10-17T11:15:28.747Z,24.97
2022-10-17T11:18:04.170Z,25.09
2022-10-17T11:20:53.839Z,25.18
2022-10-17T11:23:27.148Z,25.36
2022-10-17T11:25:59.224Z,25.42
2022-10-17T11:28:30.103Z,25.48
2022-10-17T11:30:58.467Z,25.66
2022-10-17T11:33:30.092Z,25.80
2022-10-17T11:36:03.880Z,25.91
2022-10-17T11:38:40.745Z,26.01
2022-10-17T11:41:13.115Z,26.10
2022-10-17T11:43:51.035Z,26.10
2022-10-17T11:46:24.455Z,26.06
2022-10-17T11:49:07.023Z,26.13
2022-10-17T11:52:01.503Z,26.21
2022-10-17T11:54:38.370Z,26.17
2022-10-17T11:57:14.804Z,26.30
2022-10-17T11:59:44.608Z,26.32
2022-10-17T12:02:26.857Z,26.32
2022-10-17T12:05:10.938Z,26.39
2022-10-17T12:07:51.410Z,26.43
2022-10-17T12:10:34.668Z,26.50
2022-10-17T12:13:22.042Z,26.60
2022-10-17T12:15:52.906Z,26.61
2022-10-17T12:18:25.414Z,26.58
2022-10-17T12:20:59.117Z,26.51
2022-10-17T12:23:27.701Z,26.48
2022-10-17T12:26:04.818Z,26.51
2022-10-17T12:28:35.634Z,26.45
2022-10-17T12:31:11.056Z,26.50
2022-10-17T12:33:49.630Z,26.52
2022-10-17T12:36:18.829Z,26.49
2022-10-17T12:38:50.217Z,26.48
2022-10-17T12:41:37.891Z,26.50
2022-10-17T12:44:28.749Z,26.44
2022-10-17T12:47:11.172Z,26.36
2022-10-17T12:49:44.078Z,26.41
2022-10-17T12:52:23.633Z,26.37
2022-10-17T12:55:00.587Z,26.29
2022-10-17T12:58:01.788Z,26.27
2022-10-17T13:00:49.801Z,25.95
2022-10-17T13:03:31.681Z,26.00
2022-10-17T13:06:02.615Z,26.00
2022-10-17T13:08:36.152Z,26.01
2022-10-17T13:11:24.759Z,26.03
2022-10-17T13:13:55.467Z,26.10
2022-10-17T13:16:38.661Z,26.08
2022-10-17T13:19:15.309Z,26.07
2022-10-17T13:22:02.261Z,25.97
2022-10-17T13:24:39.674Z,25.59
2022-10-17T13:27:23.354Z,25.34
2022-10-17T13:29:52.912Z,25.22
2022-10-17T13:32:23.013Z,25.24
2022-10-17T13:35:11.048Z,25.23
2022-10-17T13:37:43.001Z,25.30
2022-10-17T13:40:44.102Z,25.26
2022-10-17T13:43:17.623Z,25.19
2022-10-17T13:45:49.778Z,25.15
2022-10-17T13:48:25.338Z,24.99
2022-10-17T13:50:59.246Z,24.84
2022-10-17T13:53:32.956Z,24.71
2022-10-17T13:56:26.418Z,24.57
2022-10-17T13:58:56.633Z,24.51
2022-10-17T14:01:27.376Z,24.55
2022-10-17T14:04:08.348Z,24.58
2022-10-17T14:06:49.428Z,24.66
2022-10-17T14:09:25.708Z,24.67
2022-10-17T14:12:00.525Z,24.67
2022-10-17T14:14:32.139Z,24.56
2022-10-17T14:17:38.902Z,24.44
2022-10-17T14:23:21.894Z,24.27
2022-10-17T14:26:04.446Z,24.21
2022-10-17T14:28:34.090Z,24.05
2022-10-17T14:31:14.366Z,23.92
2022-10-17T14:33:49.675Z,23.90
2022-10-17T14:36:21.555Z,23.79
2022-10-17T14:38:52.247Z,23.69
2022-10-17T14:41:43.610Z,23.59
2022-10-17T14:44:24.505Z,23.44
2022-10-17T14:46:54.989Z,23.41
2022-10-17T14:49:29.920Z,23.28
2022-10-17T14:52:15.134Z,23.05
2022-10-17T14:54:48.493Z,22.89
2022-10-17T14:57:20.454Z,22.85
2022-10-17T14:59:54.569Z,22.72
2022-10-17T15:02:26.347Z,22.51
2022-10-17T15:04:55.776Z,22.18
2022-10-17T15:07:25.014Z,21.85
2022-10-17T15:09:54.385Z,21.59
2022-10-17T15:12:25.555Z,21.33
2022-10-17T15:14:54.832Z,21.00
2022-10-17T15:17:31.285Z,20.73
2022-10-17T15:20:00.807Z,20.53
2022-10-17T15:22:32.053Z,20.34
2022-10-17T15:25:01.555Z,20.15
2022-10-17T15:27:33.081Z,19.95
2022-10-17T15:30:02.337Z,19.75
2022-10-17T15:32:31.468Z,19.54
2022-10-17T15:35:01.131Z,19.33
2022-10-17T15:37:33.760Z,19.14
2022-10-17T15:40:06.474Z,18.96
2022-10-17T15:42:35.701Z,18.81
2022-10-17T15:45:04.158Z,18.66
2022-10-17T15:47:34.274Z,18.49
2022-10-17T15:50:05.130Z,18.33
2022-10-17T15:52:35.168Z,18.17
2022-10-17T15:55:08.365Z,18.00
2022-10-17T15:57:39.703Z,17.79
2022-10-17T16:00:20.612Z,17.54
2022-10-17T16:02:50.529Z,17.30
2022-10-17T16:05:23.654Z,17.13
2022-10-17T16:07:54.304Z,16.93
2022-10-17T16:10:23.745Z,16.72
2022-10-17T16:12:53.275Z,16.50
2022-10-17T16:15:26.956Z,16.24
2022-10-17T16:17:56.914Z,15.99
2022-10-17T16:20:27.126Z,15.76
2022-10-17T16:23:01.091Z,15.53
2022-10-17T16:25:31.016Z,15.31
2022-10-17T16:28:00.629Z,15.17
2022-10-17T16:30:30.776Z,15.04
2022-10-17T16:33:00.026Z,14.88
2022-10-17T16:35:33.182Z,14.68
2022-10-17T16:38:08.135Z,14.46
2022-10-17T16:40:39.022Z,14.31
2022-10-17T16:43:12.347Z,14.16
2022-10-17T16:45:42.105Z,14.02
2022-10-17T16:48:12.612Z,13.88
2022-10-17T16:50:42.334Z,13.75
2022-10-17T16:53:11.993Z,13.63
2022-10-17T16:55:45.023Z,13.54
2022-10-17T16:58:14.612Z,13.45
2022-10-17T17:00:44.171Z,13.35
2022-10-17T17:03:13.619Z,13.22
2022-10-17T17:05:42.513Z,13.09
2022-10-17T17:08:12.746Z,13.00
2022-10-17T17:10:46.177Z,12.92
2022-10-17T17:13:16.417Z,12.82
2022-10-17T17:15:46.415Z,12.70
2022-10-17T17:18:16.093Z,12.53
2022-10-17T17:20:45.512Z,12.39
2022-10-17T17:23:15.998Z,12.26
2022-10-17T17:25:47.840Z,12.16
2022-10-17T17:28:17.058Z,12.04
2022-10-17T17:30:46.667Z,11.94
2022-10-17T17:33:16.394Z,11.87
2022-10-17T17:35:45.713Z,11.81
2022-10-17T17:38:14.959Z,11.76
2022-10-17T17:40:50.474Z,11.70
2022-10-17T17:43:21.189Z,11.65
2022-10-17T17:45:50.654Z,11.60
2022-10-17T17:48:20.680Z,11.51
2022-10-17T17:50:49.427Z,11.42
2022-10-17T17:53:20.488Z,11.35
2022-10-17T17:56:01.205Z,11.30
2022-10-17T17:58:30.805Z,11.23
2022-10-17T18:01:00.849Z,11.17
2022-10-17T18:03:30.221Z,11.11
2022-10-17T18:06:01.967Z,11.04
2022-10-17T18:08:31.691Z,10.96
2022-10-17T18:11:01.469Z,10.90
2022-10-17T18:13:31.128Z,10.83
2022-10-17T18:16:01.661Z,10.75
2022-10-17T18:18:30.941Z,10.66
2022-10-17T18:21:01.445Z,10.58
2022-10-17T18:23:31.428Z,10.50
2022-10-17T18:26:01.422Z,10.48
2022-10-17T18:28:30.886Z,10.47
2022-10-17T18:31:04.693Z,10.44
2022-10-17T18:33:35.024Z,10.39
2022-10-17T18:36:09.308Z,10.33
2022-10-17T18:38:38.361Z,10.29
2022-10-17T18:41:11.706Z,10.25
2022-10-17T18:43:41.946Z,10.22
2022-10-17T18:46:24.198Z,10.14
2022-10-17T18:48:53.929Z,10.04
2022-10-17T18:51:24.117Z,10.00
2022-10-17T18:53:55.064Z,9.94
2022-10-17T18:56:24.989Z,9.89
2022-10-17T18:58:54.511Z,9.81
2022-10-17T19:01:25.884Z,9.75
2022-10-17T19:03:56.801Z,9.69
2022-10-17T19:06:27.915Z,9.63
2022-10-17T19:08:56.269Z,9.59
2022-10-17T19:11:26.434Z,9.54
2022-10-17T19:13:58.888Z,9.48
2022-10-17T19:16:29.878Z,9.46
2022-10-17T19:19:08.898Z,9.44
2022-10-17T19:21:38.662Z,9.41
2022-10-17T19:24:09.555Z,9.40
2022-10-17T19:26:40.198Z,9.39
2022-10-17T19:29:10.928Z,9.36
2022-10-17T19:31:42.477Z,9.33
2022-10-17T19:34:15.023Z,9.28
2022-10-17T19:36:45.054Z,9.24
2022-10-17T19:39:16.191Z,9.18
2022-10-17T19:41:46.499Z,9.11
2022-10-17T19:44:16.359Z,9.06
2022-10-17T19:46:47.174Z,9.02
2022-10-17T19:49:16.980Z,8.99
2022-10-17T19:51:46.121Z,8.94
2022-10-17T19:54:18.628Z,8.88
2022-10-17T19:56:47.908Z,8.82
2022-10-17T19:59:17.672Z,8.79
2022-10-17T20:01:47.050Z,8.75
2022-10-17T20:04:16.126Z,8.70
2022-10-17T20:06:45.236Z,8.65
2022-10-17T20:09:16.907Z,8.60
2022-10-17T20:11:46.795Z,8.56
2022-10-17T20:14:16.030Z,8.50
2022-10-17T20:16:50.420Z,8.45
2022-10-17T20:19:20.351Z,8.38
2022-10-17T20:21:48.794Z,8.34
2022-10-17T20:24:18.115Z,8.30
2022-10-17T20:26:47.297Z,8.27
2022-10-17T20:29:18.327Z,8.23
2022-10-17T20:31:48.381Z,8.20
2022-10-17T20:34:18.261Z,8.17
2022-10-17T20:36:48.033Z,8.15
2022-10-17T20:39:18.629Z,8.11
2022-10-17T20:41:47.759Z,8.08
2022-10-17T20:44:16.932Z,8.04
2022-10-17T20:47:00.774Z,8.01
2022-10-17T20:49:33.326Z,7.97
2022-10-17T20:52:02.085Z,7.95
2022-10-17T20:54:33.517Z,7.95
2022-10-17T20:57:04.950Z,7.94
2022-10-17T20:59:36.440Z,7.93
2022-10-17T21:02:06.372Z,7.89
2022-10-17T21:04:51.222Z,7.86
2022-10-17T21:07:22.607Z,7.83
2022-10-17T21:09:51.927Z,7.80
2022-10-17T21:12:31.050Z,7.79
2022-10-17T21:15:08.154Z,7.75
2022-10-17T21:17:37.914Z,7.68
2022-10-17T21:20:07.548Z,7.64
2022-10-17T21:22:37.264Z,7.60
2022-10-17T21:25:07.334Z,7.56
2022-10-17T21:27:37.139Z,7.55
2022-10-17T21:32:51.098Z,7.49
2022-10-17T21:35:22.452Z,7.45
2022-10-17T21:37:52.097Z,7.42
2022-10-17T21:40:22.000Z,7.40
2022-10-17T21:42:51.392Z,7.37
2022-10-17T21:45:25.885Z,7.34
2022-10-17T21:48:12.093Z,7.30
2022-10-17T21:50:47.356Z,7.25
2022-10-17T21:53:16.943Z,7.20
2022-10-17T21:55:46.568Z,7.18
2022-10-17T21:58:16.612Z,7.13
2022-10-17T22:00:46.625Z,7.09
2022-10-17T22:03:17.435Z,7.06
2022-10-17T22:05:46.842Z,7.04
2022-10-17T22:08:16.650Z,7.05
2022-10-17T22:10:46.295Z,7.04
2022-10-17T22:13:16.039Z,7.02
2022-10-17T22:15:45.429Z,7.01
2022-10-17T22:18:15.174Z,6.99
2022-10-17T22:20:43.812Z,6.96
2022-10-17T22:23:13.580Z,6.93
2022-10-17T22:25:43.452Z,6.90
2022-10-17T22:28:13.402Z,6.85
2022-10-17T22:30:43.604Z,6.83
2022-10-17T22:33:13.127Z,6.81
2022-10-17T22:35:45.831Z,6.77
2022-10-17T22:38:37.105Z,6.72
2022-10-17T22:41:06.447Z,6.68
2022-10-17T22:43:35.733Z,6.67
2022-10-17T22:46:06.194Z,6.65
2022-10-17T22:48:35.649Z,6.62
2022-10-17T22:51:05.083Z,6.60
2022-10-17T22:53:35.630Z,6.56
2022-10-17T22:56:15.952Z,6.53
2022-10-17T22:58:45.574Z,6.48
2022-10-17T23:01:18.500Z,6.44
2022-10-17T23:03:48.712Z,6.43
2022-10-17T23:06:17.913Z,6.40
2022-10-17T23:08:48.083Z,6.36
2022-10-17T23:11:17.866Z,6.33
2022-10-17T23:13:47.360Z,6.28
2022-10-17T23:16:16.653Z,6.27
2022-10-17T23:18:46.020Z,6.25
2022-10-17T23:21:14.800Z,6.25
2022-10-17T23:23:44.149Z,6.23
2022-10-17T23:26:14.314Z,6.21
2022-10-17T23:28:43.732Z,6.17
2022-10-17T23:31:17.159Z,6.12
2022-10-17T23:33:49.109Z,6.08
2022-10-17T23:36:18.820Z,6.06
2022-10-17T23:38:48.857Z,6.03
2022-10-17T23:41:18.068Z,6.02
2022-10-17T23:43:47.462Z,6.01
2022-10-17T23:46:16.686Z,6.01
2022-10-17T23:48:46.177Z,6.01
2022-10-17T23:51:15.455Z,5.98
2022-10-17T23:53:44.823Z,5.95
2022-10-17T23:56:16.021Z,5.94
2022-10-17T23:58:45.239Z,5.94
